Time,TemperatureF,DewpointF,PressureIn,WindDirection,WindDirectionDegrees,WindSpeedMPH,WindSpeedGustMPH,Humidity,HourlyPrecipIn,Conditions,Clouds,dailyrainin,SoftwareType,DateUTC
2013-03-18 00:00:00,64.5,62.4,29.80,SSE,148,0.0,2.0,93,0.00,,---,0.00,VWS V14.01,2013-03-18 05:00:00,
2013-03-18 00:05:00,64.6,62.2,29.80,SE,136,1.0,2.0,92,0.00,,---,0.00,VWS V14.01,2013-03-18 05:05:00,
2013-03-18 00:10:00,64.7,62.3,29.80,SE,135,1.0,2.0,92,0.00,,---,0.00,VWS V14.01,2013-03-18 05:10:00,
2013-03-18 00:15:00,64.8,62.4,29.80,SE,138,0.0,2.0,92,0.00,,---,0.00,VWS V14.01,2013-03-18 05:15:00,
2013-03-18 00:20:00,64.9,62.5,29.80,SE,143,0.0,2.0,92,0.00,,---,0.00,VWS V14.01,2013-03-18 05:20:00,
2013-03-18 00:25:00,64.9,62.5,29.80,SSE,148,2.0,2.0,92,0.00,,---,0.00,VWS V14.01,2013-03-18 05:25:00,
2013-03-18 00:29:00,65.0,62.6,29.80,SE,146,1.0,2.0,92,0.00,,---,0.00,VWS V14.01,2013-03-18 05:29:00,
2013-03-18 00:34:00,65.0,62.6,29.80,SE,141,0.0,1.0,92,0.00,,---,0.00,VWS V14.01,2013-03-18 05:34:00,
2013-03-18 00:39:00,64.9,62.5,29.80,SE,140,0.0,1.0,92,0.00,,---,0.00,VWS V14.01,2013-03-18 05:39:00,
2013-03-18 00:44:00,64.9,62.5,29.79,SE,141,1.0,2.0,92,0.00,,---,0.00,VWS V14.01,2013-03-18 05:44:00,
2013-03-18 00:49:00,64.8,62.4,29.79,SE,131,0.0,2.0,92,0.00,,---,0.00,VWS V14.01,2013-03-18 05:49:00,
2013-03-18 00:54:00,64.7,62.0,29.79,SE,132,0.0,2.0,91,0.00,,---,0.00,VWS V14.01,2013-03-18 05:54:00,
2013-03-18 00:59:00,64.6,61.9,29.79,SE,143,0.0,2.0,91,0.00,,---,0.00,VWS V14.01,2013-03-18 05:59:00,
2013-03-18 01:04:00,64.7,62.0,29.79,SE,143,0.0,1.0,91,0.00,,---,0.00,VWS V14.01,2013-03-18 06:04:00,
2013-03-18 01:09:00,64.6,61.6,29.79,SSW,212,0.0,1.0,90,0.00,,---,0.00,VWS V14.01,2013-03-18 06:09:00,
2013-03-18 01:14:00,64.5,61.2,29.78,SSW,207,0.0,1.0,89,0.00,,---,0.00,VWS V14.01,2013-03-18 06:14:00,
2013-03-18 01:19:00,64.3,61.0,29.78,SSW,207,0.0,1.0,89,0.00,,---,0.00,VWS V14.01,2013-03-18 06:19:00,
2013-03-18 01:24:00,64.1,60.8,29.78,SE,127,0.0,1.0,89,0.00,,---,0.00,VWS V14.01,2013-03-18 06:24:00,
2013-03-18 01:29:00,63.9,60.6,29.78,WSW,245,0.0,1.0,89,0.00,,---,0.00,VWS V14.01,2013-03-18 06:29:00,
2013-03-18 01:34:00,63.8,60.8,29.78,SW,231,0.0,2.0,90,0.00,,---,0.00,VWS V14.01,2013-03-18 06:34:00,
2013-03-18 01:39:00,64.0,61.3,29.78,SSE,165,0.0,2.0,91,0.00,,---,0.00,VWS V14.01,2013-03-18 06:39:00,
2013-03-18 01:44:00,64.5,61.8,29.78,SSE,148,0.0,3.0,91,0.00,,---,0.00,VWS V14.01,2013-03-18 06:44:00,
2013-03-18 01:49:00,64.8,61.8,29.78,South,184,0.0,4.0,90,0.00,,---,0.00,VWS V14.01,2013-03-18 06:49:00,
2013-03-18 01:54:00,65.2,62.2,29.78,SSW,193,1.0,4.0,90,0.00,,---,0.00,VWS V14.01,2013-03-18 06:54:00,
2013-03-18 01:59:00,65.7,62.7,29.78,SW,215,0.0,5.0,90,0.00,,---,0.00,VWS V14.01,2013-03-18 06:59:00,
2013-03-18 02:04:00,66.0,63.0,29.78,SSW,200,0.0,5.0,90,0.00,,---,0.00,VWS V14.01,2013-03-18 07:04:00,
2013-03-18 02:09:00,66.2,63.2,29.79,SW,217,5.0,5.0,90,0.00,,---,0.00,VWS V14.01,2013-03-18 07:09:00,
2013-03-18 02:14:00,66.4,63.4,29.78,SW,233,2.0,5.0,90,0.00,,---,0.00,VWS V14.01,2013-03-18 07:14:00,
2013-03-18 02:19:00,66.6,63.6,29.78,SW,229,0.0,5.0,90,0.00,,---,0.00,VWS V14.01,2013-03-18 07:19:00,
2013-03-18 02:24:00,66.7,63.7,29.78,SSW,212,2.0,5.0,90,0.00,,---,0.00,VWS V14.01,2013-03-18 07:24:00,
2013-03-18 02:29:00,66.8,63.8,29.78,ESE,123,2.0,5.0,90,0.00,,---,0.00,VWS V14.01,2013-03-18 07:29:00,
2013-03-18 02:34:00,66.7,63.7,29.78,SE,141,4.0,4.0,90,0.00,,---,0.00,VWS V14.01,2013-03-18 07:34:00,
2013-03-18 02:39:00,66.6,63.6,29.77,East,81,1.0,4.0,90,0.00,,---,0.00,VWS V14.01,2013-03-18 07:39:00,
2013-03-18 02:44:00,66.5,63.5,29.77,SE,146,0.0,4.0,90,0.00,,---,0.00,VWS V14.01,2013-03-18 07:44:00,
2013-03-18 02:49:00,66.4,63.4,29.77,SSE,149,0.0,4.0,90,0.00,,---,0.00,VWS V14.01,2013-03-18 07:49:00,
2013-03-18 02:54:00,66.2,63.5,29.77,WSW,249,0.0,4.0,91,0.00,,---,0.00,VWS V14.01,2013-03-18 07:54:00,
2013-03-18 02:59:00,66.1,63.4,29.77,SSW,204,3.0,4.0,91,0.00,,---,0.00,VWS V14.01,2013-03-18 07:59:00,
2013-03-18 03:04:00,66.0,63.3,29.77,SSW,208,2.0,2.0,91,0.00,,---,0.00,VWS V14.01,2013-03-18 08:04:00,
2013-03-18 03:09:00,65.9,63.2,29.77,WSW,240,2.0,5.0,91,0.00,,---,0.00,VWS V14.01,2013-03-18 08:09:00,
2013-03-18 03:14:00,65.9,63.2,29.77,SW,221,0.0,5.0,91,0.00,,---,0.00,VWS V14.01,2013-03-18 08:14:00,
2013-03-18 03:19:00,66.0,63.3,29.77,WSW,255,0.0,5.0,91,0.00,,---,0.00,VWS V14.01,2013-03-18 08:19:00,
2013-03-18 03:24:00,66.0,63.3,29.77,SE,143,1.0,5.0,91,0.00,,---,0.00,VWS V14.01,2013-03-18 08:24:00,
2013-03-18 03:29:00,66.0,63.3,29.76,SSW,211,0.0,5.0,91,0.00,,---,0.00,VWS V14.01,2013-03-18 08:29:00,
2013-03-18 03:34:00,66.1,63.4,29.76,SE,145,0.0,1.0,91,0.00,,---,0.00,VWS V14.01,2013-03-18 08:34:00,
2013-03-18 03:39:00,66.1,63.4,29.76,SSW,201,0.0,1.0,91,0.00,,---,0.00,VWS V14.01,2013-03-18 08:39:00,
2013-03-18 03:44:00,66.1,63.4,29.76,SW,217,0.0,2.0,91,0.00,,---,0.00,VWS V14.01,2013-03-18 08:44:00,
2013-03-18 03:49:00,66.2,63.5,29.76,South,181,0.0,2.0,91,0.00,,---,0.00,VWS V14.01,2013-03-18 08:49:00,
2013-03-18 03:54:00,66.2,63.5,29.77,SW,219,0.0,2.0,91,0.00,,---,0.00,VWS V14.01,2013-03-18 08:54:00,
2013-03-18 03:59:00,66.2,63.5,29.77,SSE,148,0.0,2.0,91,0.00,,---,0.00,VWS V14.01,2013-03-18 08:59:00,
2013-03-18 04:04:00,66.1,63.1,29.77,SW,225,0.0,1.0,90,0.00,,---,0.00,VWS V14.01,2013-03-18 09:04:00,
2013-03-18 04:09:00,66.0,63.0,29.77,SE,139,0.0,1.0,90,0.00,,---,0.00,VWS V14.01,2013-03-18 09:09:00,
2013-03-18 04:14:00,65.9,62.9,29.77,SE,141,0.0,1.0,90,0.00,,---,0.00,VWS V14.01,2013-03-18 09:14:00,
2013-03-18 04:19:00,65.7,62.7,29.77,SSW,195,0.0,1.0,90,0.00,,---,0.00,VWS V14.01,2013-03-18 09:19:00,
2013-03-18 04:24:00,65.6,62.6,29.77,South,188,0.0,1.0,90,0.00,,---,0.00,VWS V14.01,2013-03-18 09:24:00,
2013-03-18 04:29:00,65.6,62.6,29.77,SW,215,0.0,1.0,90,0.00,,---,0.00,VWS V14.01,2013-03-18 09:29:00,
2013-03-18 04:34:00,65.6,62.9,29.77,South,190,0.0,0.0,91,0.00,,---,0.00,VWS V14.01,2013-03-18 09:34:00,
2013-03-18 04:39:00,65.5,62.5,29.77,SE,145,0.0,1.0,90,0.00,,---,0.00,VWS V14.01,2013-03-18 09:39:00,
2013-03-18 04:44:00,65.4,62.7,29.77,SSW,208,0.0,1.0,91,0.00,,---,0.00,VWS V14.01,2013-03-18 09:44:00,
2013-03-18 04:49:00,65.4,62.7,29.77,SSW,208,0.0,1.0,91,0.00,,---,0.00,VWS V14.01,2013-03-18 09:49:00,
2013-03-18 04:54:00,65.3,62.6,29.78,SSW,208,0.0,1.0,91,0.00,,---,0.00,VWS V14.01,2013-03-18 09:54:00,
2013-03-18 04:59:00,65.2,62.5,29.78,SSW,208,0.0,1.0,91,0.00,,---,0.00,VWS V14.01,2013-03-18 09:59:00,
2013-03-18 05:04:00,65.1,62.4,29.77,SSW,208,0.0,0.0,91,0.00,,---,0.00,VWS V14.01,2013-03-18 10:04:00,
2013-03-18 05:09:00,65.0,62.6,29.78,SSW,208,0.0,0.0,92,0.00,,---,0.00,VWS V14.01,2013-03-18 10:09:00,
2013-03-18 05:14:00,64.9,62.5,29.78,SSW,208,0.0,0.0,92,0.00,,---,0.00,VWS V14.01,2013-03-18 10:14:00,
2013-03-18 05:19:00,64.8,62.4,29.78,SSW,208,0.0,0.0,92,0.00,,---,0.00,VWS V14.01,2013-03-18 10:19:00,
2013-03-18 05:24:00,64.7,62.3,29.78,SSW,208,0.0,0.0,92,0.00,,---,0.00,VWS V14.01,2013-03-18 10:24:00,
2013-03-18 05:29:00,64.5,62.4,29.78,SSW,208,0.0,0.0,93,0.00,,---,0.00,VWS V14.01,2013-03-18 10:29:00,
2013-03-18 05:34:00,64.5,62.4,29.78,SSW,208,0.0,0.0,93,0.00,,---,0.00,VWS V14.01,2013-03-18 10:34:00,
2013-03-18 05:39:00,64.4,62.3,29.78,SSW,208,0.0,0.0,93,0.00,,---,0.00,VWS V14.01,2013-03-18 10:39:00,
2013-03-18 05:44:00,64.3,62.5,29.78,SSW,208,0.0,0.0,94,0.00,,---,0.00,VWS V14.01,2013-03-18 10:44:00,
2013-03-18 05:49:00,64.3,62.5,29.78,SSW,208,0.0,0.0,94,0.00,,---,0.00,VWS V14.01,2013-03-18 10:49:00,
2013-03-18 05:54:00,64.3,62.5,29.78,SSW,208,0.0,0.0,94,0.00,,---,0.00,VWS V14.01,2013-03-18 10:54:00,
2013-03-18 05:59:00,64.4,62.6,29.78,SSW,208,0.0,0.0,94,0.00,,---,0.00,VWS V14.01,2013-03-18 10:59:00,
2013-03-18 06:04:00,64.6,62.8,29.78,SSW,208,0.0,0.0,94,0.00,,---,0.00,VWS V14.01,2013-03-18 11:04:00,
2013-03-18 06:09:00,64.7,62.9,29.78,SSW,205,0.0,0.0,94,0.00,,---,0.00,VWS V14.01,2013-03-18 11:09:00,
2013-03-18 06:14:00,64.7,62.9,29.78,SSW,205,0.0,0.0,94,0.00,,---,0.00,VWS V14.01,2013-03-18 11:14:00,
2013-03-18 06:19:00,64.7,62.9,29.79,SSW,205,0.0,0.0,94,0.00,,---,0.00,VWS V14.01,2013-03-18 11:19:00,
2013-03-18 06:24:00,64.6,62.8,29.79,SSW,205,0.0,0.0,94,0.00,,---,0.00,VWS V14.01,2013-03-18 11:24:00,
2013-03-18 06:29:00,64.5,62.7,29.79,SSW,205,0.0,0.0,94,0.00,,---,0.00,VWS V14.01,2013-03-18 11:29:00,
2013-03-18 06:34:00,64.4,62.6,29.79,SSW,205,0.0,0.0,94,0.00,,---,0.00,VWS V14.01,2013-03-18 11:34:00,
2013-03-18 06:39:00,64.5,63.0,29.79,SSW,205,0.0,0.0,95,0.00,,---,0.00,VWS V14.01,2013-03-18 11:39:00,
2013-03-18 06:44:00,64.6,63.1,29.79,SSW,205,0.0,0.0,95,0.00,,---,0.00,VWS V14.01,2013-03-18 11:44:00,
2013-03-18 06:49:00,64.7,63.2,29.79,SSW,205,0.0,0.0,95,0.00,,---,0.00,VWS V14.01,2013-03-18 11:49:00,
2013-03-18 06:54:00,64.8,63.3,29.79,SSE,148,0.0,0.0,95,0.00,,---,0.00,VWS V14.01,2013-03-18 11:54:00,
2013-03-18 06:59:00,64.9,63.4,29.79,SE,139,0.0,1.0,95,0.00,,---,0.00,VWS V14.01,2013-03-18 11:59:00,
2013-03-18 07:04:00,64.8,63.3,29.79,SE,139,0.0,0.0,95,0.00,,---,0.00,VWS V14.01,2013-03-18 12:04:00,
2013-03-18 07:09:00,64.8,63.3,29.80,SE,140,0.0,0.0,95,0.00,,---,0.00,VWS V14.01,2013-03-18 12:09:00,
2013-03-18 07:14:00,64.8,63.6,29.80,SE,139,0.0,1.0,96,0.00,,---,0.00,VWS V14.01,2013-03-18 12:14:00,
2013-03-18 07:19:00,64.9,63.7,29.80,SE,139,0.0,1.0,96,0.00,,---,0.00,VWS V14.01,2013-03-18 12:19:00,
2013-03-18 07:24:00,65.0,63.8,29.80,SE,139,0.0,1.0,96,0.00,,---,0.00,VWS V14.01,2013-03-18 12:24:00,
2013-03-18 07:29:00,65.2,64.0,29.80,SE,141,0.0,1.0,96,0.00,,---,0.00,VWS V14.01,2013-03-18 12:29:00,
2013-03-18 07:34:00,65.4,64.2,29.80,SE,140,0.0,0.0,96,0.00,,---,0.00,VWS V14.01,2013-03-18 12:34:00,
2013-03-18 07:39:00,65.6,64.4,29.80,SE,139,0.0,1.0,96,0.00,,---,0.00,VWS V14.01,2013-03-18 12:39:00,
2013-03-18 07:44:00,65.8,64.6,29.80,SE,140,0.0,1.0,96,0.00,,---,0.00,VWS V14.01,2013-03-18 12:44:00,
2013-03-18 07:49:00,66.1,64.9,29.81,SE,140,0.0,1.0,96,0.00,,---,0.00,VWS V14.01,2013-03-18 12:49:00,
2013-03-18 07:54:00,66.3,65.1,29.81,SE,141,0.0,1.0,96,0.00,,---,0.00,VWS V14.01,2013-03-18 12:54:00,
2013-03-18 07:59:00,66.6,65.1,29.81,SE,140,0.0,1.0,95,0.00,,---,0.00,VWS V14.01,2013-03-18 12:59:00,
2013-03-18 08:04:00,67.0,65.5,29.81,SSE,153,0.0,1.0,95,0.00,,---,0.00,VWS V14.01,2013-03-18 13:04:00,
2013-03-18 08:09:00,67.3,65.8,29.81,SE,145,0.0,1.0,95,0.00,,---,0.00,VWS V14.01,2013-03-18 13:09:00,
2013-03-18 08:14:00,67.5,66.0,29.81,South,176,0.0,1.0,95,0.00,,---,0.00,VWS V14.01,2013-03-18 13:14:00,
2013-03-18 08:19:00,67.9,66.4,29.81,SE,145,0.0,1.0,95,0.00,,---,0.00,VWS V14.01,2013-03-18 13:19:00,
2013-03-18 08:24:00,68.1,66.3,29.81,SE,146,0.0,1.0,94,0.00,,---,0.00,VWS V14.01,2013-03-18 13:24:00,
2013-03-18 08:29:00,68.2,66.4,29.81,SE,136,0.0,2.0,94,0.00,,---,0.00,VWS V14.01,2013-03-18 13:29:00,
2013-03-18 08:34:00,68.4,66.6,29.80,SE,136,0.0,0.0,94,0.00,,---,0.00,VWS V14.01,2013-03-18 13:34:00,
2013-03-18 08:39:00,68.6,66.8,29.81,SE,131,0.0,1.0,94,0.00,,---,0.00,VWS V14.01,2013-03-18 13:39:00,
2013-03-18 08:44:00,69.0,67.2,29.81,ESE,103,1.0,2.0,94,0.00,,---,0.00,VWS V14.01,2013-03-18 13:44:00,
2013-03-18 08:49:00,69.4,67.6,29.81,SSE,162,0.0,2.0,94,0.00,,---,0.00,VWS V14.01,2013-03-18 13:49:00,
2013-03-18 08:54:00,69.7,67.9,29.81,SE,143,1.0,2.0,94,0.00,,---,0.00,VWS V14.01,2013-03-18 13:54:00,
2013-03-18 08:59:00,70.0,67.9,29.81,SSW,203,0.0,2.0,93,0.00,,---,0.00,VWS V14.01,2013-03-18 13:59:00,
2013-03-18 09:04:00,70.2,68.1,29.81,SSE,150,1.0,1.0,93,0.00,,---,0.00,VWS V14.01,2013-03-18 14:04:00,
2013-03-18 09:09:00,70.4,68.3,29.81,South,187,0.0,2.0,93,0.00,,---,0.00,VWS V14.01,2013-03-18 14:09:00,
2013-03-18 09:14:00,70.7,68.6,29.81,SE,136,1.0,3.0,93,0.00,,---,0.00,VWS V14.01,2013-03-18 14:14:00,
2013-03-18 09:19:00,71.0,68.6,29.81,SE,141,1.0,3.0,92,0.00,,---,0.00,VWS V14.01,2013-03-18 14:19:00,
2013-03-18 09:24:00,71.2,68.8,29.82,SE,145,1.0,3.0,92,0.00,,---,0.00,VWS V14.01,2013-03-18 14:24:00,
2013-03-18 09:29:00,71.4,69.0,29.82,SE,141,0.0,3.0,92,0.00,,---,0.00,VWS V14.01,2013-03-18 14:29:00,
2013-03-18 09:34:00,71.4,68.6,29.82,SW,233,1.0,1.0,91,0.00,,---,0.00,VWS V14.01,2013-03-18 14:34:00,
2013-03-18 09:39:00,71.3,68.9,29.82,SSE,155,0.0,3.0,92,0.00,,---,0.00,VWS V14.01,2013-03-18 14:39:00,
2013-03-18 09:44:00,71.4,69.0,29.82,SSE,150,1.0,3.0,92,0.00,,---,0.00,VWS V14.01,2013-03-18 14:44:00,
2013-03-18 09:49:00,71.5,68.7,29.82,SSE,148,0.0,3.0,91,0.00,,---,0.00,VWS V14.01,2013-03-18 14:49:00,
2013-03-18 09:54:00,71.6,68.8,29.81,SSE,167,0.0,3.0,91,0.00,,---,0.00,VWS V14.01,2013-03-18 14:54:00,
2013-03-18 09:59:00,71.7,68.9,29.81,SE,138,1.0,3.0,91,0.00,,---,0.00,VWS V14.01,2013-03-18 14:59:00,
2013-03-18 10:04:00,71.8,69.0,29.81,SSE,150,2.0,3.0,91,0.00,,---,0.00,VWS V14.01,2013-03-18 15:04:00,
2013-03-18 10:09:00,71.9,69.1,29.82,SW,217,3.0,3.0,91,0.00,,---,0.00,VWS V14.01,2013-03-18 15:09:00,
2013-03-18 10:14:00,71.8,69.0,29.82,SSW,194,2.0,4.0,91,0.00,,---,0.00,VWS V14.01,2013-03-18 15:14:00,
2013-03-18 10:19:00,71.8,69.0,29.82,SSW,210,1.0,4.0,91,0.00,,---,0.00,VWS V14.01,2013-03-18 15:19:00,
2013-03-18 10:24:00,71.9,69.1,29.82,SSW,205,0.0,4.0,91,0.00,,---,0.00,VWS V14.01,2013-03-18 15:24:00,
2013-03-18 10:29:00,71.9,69.1,29.82,SW,229,3.0,7.0,91,0.00,,---,0.00,VWS V14.01,2013-03-18 15:29:00,
2013-03-18 10:34:00,71.9,69.1,29.82,SSW,205,0.0,1.0,91,0.00,,---,0.00,VWS V14.01,2013-03-18 15:34:00,
2013-03-18 10:39:00,72.0,69.2,29.82,SSE,157,1.0,3.0,91,0.00,,---,0.00,VWS V14.01,2013-03-18 15:39:00,
2013-03-18 10:44:00,72.1,69.3,29.82,SE,143,0.0,3.0,91,0.00,,---,0.00,VWS V14.01,2013-03-18 15:44:00,
2013-03-18 10:49:00,72.2,69.1,29.83,SSW,210,0.0,3.0,90,0.00,,---,0.00,VWS V14.01,2013-03-18 15:49:00,
2013-03-18 10:54:00,72.3,69.2,29.82,SSW,204,3.0,3.0,90,0.00,,---,0.00,VWS V14.01,2013-03-18 15:54:00,
2013-03-18 10:59:00,72.3,69.2,29.83,SW,225,1.0,4.0,90,0.00,,---,0.00,VWS V14.01,2013-03-18 15:59:00,
2013-03-18 11:04:00,72.3,69.2,29.82,SSW,207,0.0,0.0,90,0.00,,---,0.00,VWS V14.01,2013-03-18 16:04:00,
2013-03-18 11:09:00,72.5,69.4,29.83,SSW,194,1.0,5.0,90,0.00,,---,0.00,VWS V14.01,2013-03-18 16:09:00,
2013-03-18 11:13:00,72.7,69.6,29.83,SW,217,1.0,5.0,90,0.00,,---,0.00,VWS V14.01,2013-03-18 16:13:00,
2013-03-18 11:18:00,72.9,69.5,29.83,SW,225,2.0,5.0,89,0.00,,---,0.00,VWS V14.01,2013-03-18 16:18:00,
2013-03-18 11:23:00,73.1,69.7,29.83,SSW,202,2.0,5.0,89,0.00,,---,0.00,VWS V14.01,2013-03-18 16:23:00,
2013-03-18 11:28:00,73.2,69.4,29.82,SSW,212,0.0,5.0,88,0.00,,---,0.00,VWS V14.01,2013-03-18 16:28:00,
2013-03-18 11:33:00,73.4,69.6,29.82,SW,229,3.0,4.0,88,0.00,,---,0.00,VWS V14.01,2013-03-18 16:33:00,
2013-03-18 11:38:00,73.3,69.5,29.82,SSW,211,2.0,4.0,88,0.00,,---,0.00,VWS V14.01,2013-03-18 16:38:00,
2013-03-18 11:43:00,73.3,69.5,29.82,SW,225,0.0,4.0,88,0.00,,---,0.00,VWS V14.01,2013-03-18 16:43:00,
2013-03-18 11:48:00,73.4,70.0,29.82,SSW,192,1.0,4.0,89,0.00,,---,0.00,VWS V14.01,2013-03-18 16:48:00,
2013-03-18 11:53:00,73.5,69.7,29.82,SW,218,1.0,4.0,88,0.00,,---,0.00,VWS V14.01,2013-03-18 16:53:00,
2013-03-18 11:58:00,73.9,70.1,29.81,SW,221,1.0,4.0,88,0.00,,---,0.00,VWS V14.01,2013-03-18 16:58:00,
2013-03-18 12:03:00,73.9,69.8,29.81,SSW,198,4.0,4.0,87,0.00,,---,0.00,VWS V14.01,2013-03-18 17:03:00,
2013-03-18 12:08:00,74.0,69.9,29.81,SW,217,3.0,5.0,87,0.00,,---,0.00,VWS V14.01,2013-03-18 17:08:00,
2013-03-18 12:13:00,74.4,70.3,29.81,SSE,166,1.0,5.0,87,0.00,,---,0.00,VWS V14.01,2013-03-18 17:13:00,
2013-03-18 12:18:00,75.3,70.8,29.80,SW,214,3.0,5.0,86,0.00,,---,0.00,VWS V14.01,2013-03-18 17:18:00,
2013-03-18 12:23:00,76.2,71.4,29.80,SE,141,0.0,5.0,85,0.00,,---,0.00,VWS V14.01,2013-03-18 17:23:00,
2013-03-18 12:28:00,76.7,71.2,29.80,South,184,2.0,5.0,83,0.00,,---,0.00,VWS V14.01,2013-03-18 17:28:00,
2013-03-18 12:33:00,77.1,70.8,29.79,SSW,204,1.0,2.0,81,0.00,,---,0.00,VWS V14.01,2013-03-18 17:33:00,
2013-03-18 12:38:00,77.6,71.3,29.79,SW,214,2.0,4.0,81,0.00,,---,0.00,VWS V14.01,2013-03-18 17:38:00,
2013-03-18 12:43:00,78.3,71.6,29.79,SSE,152,0.0,4.0,80,0.00,,---,0.00,VWS V14.01,2013-03-18 17:43:00,
2013-03-18 12:48:00,78.3,70.9,29.79,WSW,242,2.0,4.0,78,0.00,,---,0.00,VWS V14.01,2013-03-18 17:48:00,
2013-03-18 12:53:00,78.8,71.4,29.79,SW,218,2.0,6.0,78,0.00,,---,0.00,VWS V14.01,2013-03-18 17:53:00,
2013-03-18 12:58:00,79.3,71.5,29.78,SSW,211,1.0,6.0,77,0.00,,---,0.00,VWS V14.01,2013-03-18 17:58:00,
2013-03-18 13:03:00,80.1,72.2,29.78,SSW,208,4.0,6.0,77,0.00,,---,0.00,VWS V14.01,2013-03-18 18:03:00,
2013-03-18 13:08:00,79.7,70.7,29.78,SW,219,3.0,5.0,74,0.00,,---,0.00,VWS V14.01,2013-03-18 18:08:00,
2013-03-18 13:13:00,79.3,70.3,29.78,SSW,200,2.0,5.0,74,0.00,,---,0.00,VWS V14.01,2013-03-18 18:13:00,
2013-03-18 13:18:00,79.3,70.7,29.78,SW,232,3.0,5.0,75,0.00,,---,0.00,VWS V14.01,2013-03-18 18:18:00,
2013-03-18 13:23:00,79.5,70.9,29.77,SW,226,4.0,6.0,75,0.00,,---,0.00,VWS V14.01,2013-03-18 18:23:00,
2013-03-18 13:28:00,79.6,70.6,29.78,SE,138,2.0,7.0,74,0.00,,---,0.00,VWS V14.01,2013-03-18 18:28:00,
2013-03-18 13:33:00,79.9,70.9,29.77,SW,218,2.0,7.0,74,0.00,,---,0.00,VWS V14.01,2013-03-18 18:33:00,
2013-03-18 13:38:00,80.1,71.5,29.77,WSW,238,3.0,7.0,75,0.00,,---,0.00,VWS V14.01,2013-03-18 18:38:00,
2013-03-18 13:43:00,80.1,71.5,29.76,SW,215,1.0,8.0,75,0.00,,---,0.00,VWS V14.01,2013-03-18 18:43:00,
2013-03-18 13:48:00,80.2,70.4,29.76,SW,231,2.0,8.0,72,0.00,,---,0.00,VWS V14.01,2013-03-18 18:48:00,
2013-03-18 13:53:00,80.3,70.5,29.76,WSW,239,1.0,8.0,72,0.00,,---,0.00,VWS V14.01,2013-03-18 18:53:00,
2013-03-18 13:58:00,80.3,69.6,29.76,WSW,243,2.0,8.0,70,0.00,,---,0.00,VWS V14.01,2013-03-18 18:58:00,
2013-03-18 14:03:00,80.7,70.8,29.75,SSE,150,2.0,8.0,72,0.00,,---,0.00,VWS V14.01,2013-03-18 19:03:00,
2013-03-18 14:08:00,81.2,71.3,29.75,SW,217,3.0,4.0,72,0.00,,---,0.00,VWS V14.01,2013-03-18 19:08:00,
2013-03-18 14:13:00,81.1,70.4,29.75,SSW,204,3.0,6.0,70,0.00,,---,0.00,VWS V14.01,2013-03-18 19:13:00,
2013-03-18 14:18:00,81.1,71.2,29.74,SSW,204,4.0,6.0,72,0.00,,---,0.00,VWS V14.01,2013-03-18 19:18:00,
2013-03-18 14:23:00,81.0,70.3,29.74,SSW,213,1.0,7.0,70,0.00,,---,0.00,VWS V14.01,2013-03-18 19:23:00,
2013-03-18 14:28:00,80.8,70.1,29.74,South,181,2.0,7.0,70,0.00,,---,0.00,VWS V14.01,2013-03-18 19:28:00,
2013-03-18 14:33:00,81.2,70.9,29.74,South,191,0.0,7.0,71,0.00,,---,0.00,VWS V14.01,2013-03-18 19:33:00,
2013-03-18 14:38:00,81.1,70.4,29.74,SSW,210,3.0,5.0,70,0.00,,---,0.00,VWS V14.01,2013-03-18 19:38:00,
2013-03-18 14:43:00,80.9,70.6,29.74,SSW,197,3.0,6.0,71,0.00,,---,0.00,VWS V14.01,2013-03-18 19:43:00,
2013-03-18 14:48:00,80.7,70.4,29.73,SSW,207,3.0,6.0,71,0.00,,---,0.00,VWS V14.01,2013-03-18 19:48:00,
2013-03-18 14:53:00,81.0,71.1,29.73,SSW,211,0.0,6.0,72,0.00,,---,0.00,VWS V14.01,2013-03-18 19:53:00,
2013-03-18 14:58:00,81.0,70.7,29.73,SSE,155,2.0,6.0,71,0.00,,---,0.00,VWS V14.01,2013-03-18 19:58:00,
2013-03-18 15:03:00,81.7,71.8,29.72,SW,231,1.0,6.0,72,0.00,,---,0.00,VWS V14.01,2013-03-18 20:03:00,
2013-03-18 15:08:00,81.1,70.4,29.72,SSW,199,0.0,6.0,70,0.00,,---,0.00,VWS V14.01,2013-03-18 20:08:00,
2013-03-18 15:13:00,80.4,70.1,29.72,SSE,167,2.0,6.0,71,0.00,,---,0.00,VWS V14.01,2013-03-18 20:13:00,
2013-03-18 15:18:00,80.2,70.8,29.72,WSW,245,3.0,6.0,73,0.00,,---,0.00,VWS V14.01,2013-03-18 20:18:00,
2013-03-18 15:23:00,80.3,70.5,29.72,South,181,3.0,6.0,72,0.00,,---,0.00,VWS V14.01,2013-03-18 20:23:00,
2013-03-18 15:28:00,80.1,69.9,29.72,SW,235,4.0,7.0,71,0.00,,---,0.00,VWS V14.01,2013-03-18 20:28:00,
2013-03-18 15:33:00,80.0,70.2,29.71,SSW,204,2.0,7.0,72,0.00,,---,0.00,VWS V14.01,2013-03-18 20:33:00,
2013-03-18 15:38:00,80.2,70.4,29.72,SW,235,2.0,4.0,72,0.00,,---,0.00,VWS V14.01,2013-03-18 20:38:00,
2013-03-18 15:43:00,80.2,70.4,29.71,SSW,200,3.0,4.0,72,0.00,,---,0.00,VWS V14.01,2013-03-18 20:43:00,
2013-03-18 15:48:00,80.5,71.5,29.71,South,183,0.0,4.0,74,0.00,,---,0.00,VWS V14.01,2013-03-18 20:48:00,
2013-03-18 15:53:00,80.8,70.9,29.71,SSW,207,4.0,4.0,72,0.00,,---,0.00,VWS V14.01,2013-03-18 20:53:00,
2013-03-18 15:58:00,80.9,71.0,29.71,SW,221,1.0,7.0,72,0.00,,---,0.00,VWS V14.01,2013-03-18 20:58:00,
2013-03-18 16:03:00,80.8,69.7,29.71,SSW,207,3.0,7.0,69,0.00,,---,0.00,VWS V14.01,2013-03-18 21:03:00,
2013-03-18 16:08:00,80.5,71.1,29.70,SSW,208,0.0,5.0,73,0.00,,---,0.00,VWS V14.01,2013-03-18 21:08:00,
2013-03-18 16:13:00,80.5,70.2,29.71,SSW,211,2.0,6.0,71,0.00,,---,0.00,VWS V14.01,2013-03-18 21:13:00,
2013-03-18 16:18:00,79.8,70.0,29.70,South,178,0.0,6.0,72,0.00,,---,0.00,VWS V14.01,2013-03-18 21:18:00,
2013-03-18 16:23:00,79.6,70.2,29.70,SW,225,3.0,6.0,73,0.00,,---,0.00,VWS V14.01,2013-03-18 21:23:00,
2013-03-18 16:28:00,79.6,70.2,29.70,SSW,201,2.0,6.0,73,0.00,,---,0.00,VWS V14.01,2013-03-18 21:28:00,
2013-03-18 16:33:00,79.4,70.0,29.70,SSW,211,0.0,6.0,73,0.00,,---,0.00,VWS V14.01,2013-03-18 21:33:00,
2013-03-18 16:38:00,79.4,70.4,29.70,South,189,2.0,4.0,74,0.00,,---,0.00,VWS V14.01,2013-03-18 21:38:00,
2013-03-18 16:43:00,78.8,69.4,29.70,WSW,249,1.0,5.0,73,0.00,,---,0.00,VWS V14.01,2013-03-18 21:43:00,
2013-03-18 16:48:00,78.8,70.2,29.70,SSW,203,4.0,5.0,75,0.00,,---,0.00,VWS V14.01,2013-03-18 21:48:00,
2013-03-18 16:53:00,78.6,69.6,29.70,SW,236,1.0,7.0,74,0.00,,---,0.00,VWS V14.01,2013-03-18 21:53:00,
2013-03-18 16:58:00,78.5,70.3,29.69,SSW,212,2.0,7.0,76,0.00,,---,0.00,VWS V14.01,2013-03-18 21:58:00,
2013-03-18 17:03:00,78.3,69.7,29.69,SSW,207,1.0,7.0,75,0.00,,---,0.00,VWS V14.01,2013-03-18 22:03:00,
2013-03-18 17:08:00,78.5,70.7,29.69,SSE,149,1.0,2.0,77,0.00,,---,0.00,VWS V14.01,2013-03-18 22:08:00,
2013-03-18 17:13:00,77.9,70.5,29.69,SW,229,0.0,3.0,78,0.00,,---,0.00,VWS V14.01,2013-03-18 22:13:00,
2013-03-18 17:18:00,77.8,70.8,29.69,SSE,152,1.0,3.0,79,0.00,,---,0.00,VWS V14.01,2013-03-18 22:18:00,
2013-03-18 17:23:00,77.5,70.5,29.69,SSW,201,1.0,3.0,79,0.00,,---,0.00,VWS V14.01,2013-03-18 22:23:00,
2013-03-18 17:28:00,77.2,70.2,29.69,SSE,167,0.0,5.0,79,0.00,,---,0.00,VWS V14.01,2013-03-18 22:28:00,
2013-03-18 17:33:00,77.0,70.0,29.69,SE,145,0.0,5.0,79,0.00,,---,0.00,VWS V14.01,2013-03-18 22:33:00,
2013-03-18 17:38:00,76.6,69.6,29.69,SSE,148,0.0,3.0,79,0.00,,---,0.00,VWS V14.01,2013-03-18 22:38:00,
2013-03-18 17:43:00,76.4,69.8,29.69,SW,214,0.0,3.0,80,0.00,,---,0.00,VWS V14.01,2013-03-18 22:43:00,
2013-03-18 17:48:00,76.1,69.8,29.69,SSW,193,0.0,4.0,81,0.00,,---,0.00,VWS V14.01,2013-03-18 22:48:00,
2013-03-18 17:53:00,75.5,69.6,29.69,SSW,212,0.0,4.0,82,0.00,,---,0.00,VWS V14.01,2013-03-18 22:53:00,
2013-03-18 17:58:00,75.2,69.7,29.69,SSW,207,0.0,4.0,83,0.00,,---,0.00,VWS V14.01,2013-03-18 22:58:00,
2013-03-18 18:03:00,74.7,69.6,29.69,SE,137,0.0,4.0,84,0.00,,---,0.00,VWS V14.01,2013-03-18 23:03:00,
2013-03-18 18:08:00,74.2,69.4,29.70,SSW,201,0.0,3.0,85,0.00,,---,0.00,VWS V14.01,2013-03-18 23:08:00,
2013-03-18 18:13:00,73.9,69.4,29.70,SSW,210,2.0,3.0,86,0.00,,---,0.00,VWS V14.01,2013-03-18 23:13:00,
2013-03-18 18:18:00,73.5,69.4,29.70,SW,217,0.0,3.0,87,0.00,,---,0.00,VWS V14.01,2013-03-18 23:18:00,
2013-03-18 18:23:00,73.3,69.2,29.70,SW,217,0.0,3.0,87,0.00,,---,0.00,VWS V14.01,2013-03-18 23:23:00,
2013-03-18 18:28:00,72.9,69.1,29.70,SSW,210,0.0,3.0,88,0.00,,---,0.00,VWS V14.01,2013-03-18 23:28:00,
2013-03-18 18:33:00,72.6,68.8,29.71,SW,215,0.0,4.0,88,0.00,,---,0.00,VWS V14.01,2013-03-18 23:33:00,
2013-03-18 18:38:00,72.4,69.0,29.71,SSW,208,0.0,0.0,89,0.00,,---,0.00,VWS V14.01,2013-03-18 23:38:00,
2013-03-18 18:43:00,72.1,69.0,29.71,SSW,195,0.0,1.0,90,0.00,,---,0.00,VWS V14.01,2013-03-18 23:43:00,
2013-03-18 18:48:00,71.9,68.8,29.71,SSW,201,1.0,1.0,90,0.00,,---,0.00,VWS V14.01,2013-03-18 23:48:00,
2013-03-18 18:53:00,71.8,69.0,29.72,SSW,208,0.0,2.0,91,0.00,,---,0.00,VWS V14.01,2013-03-18 23:53:00,
2013-03-18 18:58:00,71.7,68.9,29.71,SW,216,0.0,2.0,91,0.00,,---,0.00,VWS V14.01,2013-03-18 23:58:00,
2013-03-18 19:03:00,71.7,69.3,29.71,SSW,198,0.0,2.0,92,0.00,,---,0.00,VWS V14.01,2013-03-19 00:03:00,
2013-03-18 19:08:00,71.6,69.2,29.72,SSW,210,0.0,1.0,92,0.00,,---,0.00,VWS V14.01,2013-03-19 00:08:00,
2013-03-18 19:13:00,71.6,69.2,29.71,SE,145,0.0,2.0,92,0.00,,---,0.00,VWS V14.01,2013-03-19 00:13:00,
2013-03-18 19:18:00,71.5,69.1,29.72,SW,222,1.0,2.0,92,0.00,,---,0.00,VWS V14.01,2013-03-19 00:18:00,
2013-03-18 19:23:00,71.5,69.4,29.72,SW,219,0.0,2.0,93,0.00,,---,0.00,VWS V14.01,2013-03-19 00:23:00,
2013-03-18 19:28:00,71.4,69.3,29.72,SW,219,1.0,3.0,93,0.00,,---,0.00,VWS V14.01,2013-03-19 00:28:00,
2013-03-18 19:33:00,71.3,69.2,29.72,SW,219,1.0,3.0,93,0.00,,---,0.00,VWS V14.01,2013-03-19 00:33:00,
2013-03-18 19:38:00,71.2,69.1,29.72,SW,217,0.0,1.0,93,0.00,,---,0.00,VWS V14.01,2013-03-19 00:38:00,
2013-03-18 19:43:00,71.2,69.4,29.72,SW,218,0.0,1.0,94,0.00,,---,0.00,VWS V14.01,2013-03-19 00:43:00,
2013-03-18 19:48:00,71.3,69.5,29.72,SW,218,0.0,1.0,94,0.00,,---,0.00,VWS V14.01,2013-03-19 00:48:00,
2013-03-18 19:53:00,71.2,69.4,29.73,SW,218,0.0,1.0,94,0.00,,---,0.00,VWS V14.01,2013-03-19 00:53:00,
2013-03-18 19:58:00,71.2,69.4,29.73,SSW,193,0.0,1.0,94,0.00,,---,0.00,VWS V14.01,2013-03-19 00:58:00,
2013-03-18 20:03:00,71.2,69.4,29.73,SSW,193,0.0,1.0,94,0.00,,---,0.00,VWS V14.01,2013-03-19 01:03:00,
2013-03-18 20:08:00,71.2,69.4,29.73,SE,127,0.0,0.0,94,0.00,,---,0.00,VWS V14.01,2013-03-19 01:08:00,
2013-03-18 20:13:00,71.1,69.3,29.74,SE,127,0.0,0.0,94,0.00,,---,0.00,VWS V14.01,2013-03-19 01:13:00,
2013-03-18 20:18:00,71.1,69.3,29.74,SE,127,0.0,0.0,94,0.00,,---,0.00,VWS V14.01,2013-03-19 01:18:00,
2013-03-18 20:23:00,71.1,69.3,29.74,SE,127,0.0,0.0,94,0.00,,---,0.00,VWS V14.01,2013-03-19 01:23:00,
2013-03-18 20:28:00,71.1,69.3,29.74,SE,127,0.0,0.0,94,0.00,,---,0.00,VWS V14.01,2013-03-19 01:28:00,
2013-03-18 20:33:00,71.1,69.6,29.74,SE,127,0.0,0.0,95,0.00,,---,0.00,VWS V14.01,2013-03-19 01:33:00,
2013-03-18 20:38:00,71.1,69.6,29.74,SE,127,0.0,0.0,95,0.00,,---,0.00,VWS V14.01,2013-03-19 01:38:00,
2013-03-18 20:43:00,71.1,69.6,29.74,SE,127,0.0,0.0,95,0.00,,---,0.00,VWS V14.01,2013-03-19 01:43:00,
2013-03-18 20:48:00,71.1,69.6,29.75,SE,127,0.0,0.0,95,0.00,,---,0.00,VWS V14.01,2013-03-19 01:48:00,
2013-03-18 20:53:00,71.1,69.6,29.75,SE,127,0.0,0.0,95,0.00,,---,0.00,VWS V14.01,2013-03-19 01:53:00,
2013-03-18 20:58:00,71.0,69.5,29.75,SE,127,0.0,0.0,95,0.00,,---,0.00,VWS V14.01,2013-03-19 01:58:00,
2013-03-18 21:03:00,71.0,69.5,29.75,SE,127,0.0,0.0,95,0.00,,---,0.00,VWS V14.01,2013-03-19 02:03:00,
2013-03-18 21:08:00,70.9,69.4,29.75,SE,127,0.0,0.0,95,0.00,,---,0.00,VWS V14.01,2013-03-19 02:08:00,
2013-03-18 21:13:00,70.9,69.4,29.76,SE,127,0.0,0.0,95,0.00,,---,0.00,VWS V14.01,2013-03-19 02:13:00,
2013-03-18 21:18:00,70.8,69.3,29.76,SE,127,0.0,0.0,95,0.00,,---,0.00,VWS V14.01,2013-03-19 02:18:00,
2013-03-18 21:23:00,70.8,69.3,29.76,SE,127,0.0,0.0,95,0.00,,---,0.00,VWS V14.01,2013-03-19 02:23:00,
2013-03-18 21:28:00,70.8,69.3,29.76,SE,133,0.0,1.0,95,0.00,,---,0.00,VWS V14.01,2013-03-19 02:28:00,
2013-03-18 21:33:00,70.7,69.2,29.76,SE,136,0.0,1.0,95,0.00,,---,0.00,VWS V14.01,2013-03-19 02:33:00,
2013-03-18 21:38:00,70.6,69.1,29.76,SE,139,0.0,1.0,95,0.00,,---,0.00,VWS V14.01,2013-03-19 02:38:00,
2013-03-18 21:42:00,70.6,69.1,29.76,SE,138,0.0,1.0,95,0.00,,---,0.00,VWS V14.01,2013-03-19 02:42:00,
2013-03-18 21:48:00,70.5,69.0,29.76,SW,221,0.0,1.0,95,0.00,,---,0.00,VWS V14.01,2013-03-19 02:48:00,
2013-03-18 21:53:00,70.5,69.0,29.77,SW,221,0.0,1.0,95,0.00,,---,0.00,VWS V14.01,2013-03-19 02:53:00,
2013-03-18 21:57:00,70.4,68.9,29.77,SW,221,0.0,1.0,95,0.00,,---,0.00,VWS V14.01,2013-03-19 02:57:00,
2013-03-18 22:02:00,70.4,69.2,29.77,SW,221,0.0,1.0,96,0.00,,---,0.00,VWS V14.01,2013-03-19 03:02:00,
2013-03-18 22:08:00,70.4,69.2,29.77,SW,218,0.0,0.0,96,0.00,,---,0.00,VWS V14.01,2013-03-19 03:08:00,
2013-03-18 22:12:00,70.4,69.2,29.77,SSW,205,0.0,1.0,96,0.00,,---,0.00,VWS V14.01,2013-03-19 03:12:00,
2013-03-18 22:17:00,70.3,69.1,29.77,SSW,210,0.0,1.0,96,0.00,,---,0.00,VWS V14.01,2013-03-19 03:17:00,
2013-03-18 22:23:00,70.2,69.0,29.77,SSW,203,0.0,1.0,96,0.00,,---,0.00,VWS V14.01,2013-03-19 03:23:00,
2013-03-18 22:28:00,70.2,69.0,29.78,SSW,203,0.0,1.0,96,0.00,,---,0.00,VWS V14.01,2013-03-19 03:28:00,
2013-03-18 22:33:00,70.2,69.0,29.79,SSW,203,0.0,1.0,96,0.00,,---,0.00,VWS V14.01,2013-03-19 03:33:00,
2013-03-18 22:37:00,70.2,69.0,29.80,SSW,203,0.0,0.0,96,0.00,,---,0.00,VWS V14.01,2013-03-19 03:37:00,
2013-03-18 22:42:00,70.1,68.9,29.79,SSW,203,0.0,0.0,96,0.00,,---,0.00,VWS V14.01,2013-03-19 03:42:00,
2013-03-18 22:47:00,70.1,68.9,29.79,SSW,203,0.0,0.0,96,0.00,,---,0.00,VWS V14.01,2013-03-19 03:47:00,
2013-03-18 22:52:00,70.1,68.9,29.79,SSW,203,0.0,0.0,96,0.00,,---,0.00,VWS V14.01,2013-03-19 03:52:00,
2013-03-18 22:57:00,70.1,68.9,29.79,SSW,203,0.0,0.0,96,0.00,,---,0.00,VWS V14.01,2013-03-19 03:57:00,
2013-03-18 23:00:00,70.0,68.8,29.79,SSW,203,0.0,0.0,96,0.00,,---,0.00,VWS V14.01,2013-03-19 04:00:00,
2013-03-18 23:05:00,70.0,68.8,29.78,SSW,203,0.0,0.0,96,0.00,,---,0.00,VWS V14.01,2013-03-19 04:05:00,
2013-03-18 23:10:00,70.0,68.8,29.78,SSW,203,0.0,0.0,96,0.00,,---,0.00,VWS V14.01,2013-03-19 04:10:00,
2013-03-18 23:15:00,70.1,68.9,29.77,SSW,203,0.0,0.0,96,0.00,,---,0.00,VWS V14.01,2013-03-19 04:15:00,
2013-03-18 23:20:00,70.0,68.8,29.77,SW,224,0.0,1.0,96,0.00,,---,0.00,VWS V14.01,2013-03-19 04:20:00,
2013-03-18 23:25:00,70.0,68.8,29.77,SW,219,0.0,2.0,96,0.00,,---,0.00,VWS V14.01,2013-03-19 04:25:00,
2013-03-18 23:30:00,69.9,68.7,29.78,SW,217,0.0,2.0,96,0.00,,---,0.00,VWS V14.01,2013-03-19 04:30:00,
2013-03-18 23:35:00,69.9,68.7,29.79,SW,217,0.0,0.0,96,0.00,,---,0.00,VWS V14.01,2013-03-19 04:35:00,
2013-03-18 23:40:00,69.9,68.7,29.80,SW,217,0.0,0.0,96,0.00,,---,0.00,VWS V14.01,2013-03-19 04:40:00,
2013-03-18 23:45:00,69.9,68.7,29.80,SW,217,0.0,0.0,96,0.00,,---,0.00,VWS V14.01,2013-03-19 04:45:00,
2013-03-18 23:50:00,69.8,68.6,29.79,SW,217,0.0,0.0,96,0.00,,---,0.00,VWS V14.01,2013-03-19 04:50:00,
2013-03-18 23:55:00,69.8,68.6,29.79,SW,217,0.0,0.0,96,0.00,,---,0.00,VWS V14.01,2013-03-19 04:55:00,